SBBRSBAN

Guest
Details From SBBR - Brasilia Presidente Juscelino Kubitsch
To SBAN - BASE AEREA
Flight Number -
Tags decoded
Created
Modified
Stats Distance 64 nm / 119 km
Max Altitude 0 ft / 0 m
Waypoints 2
Social Downloads 3
Likes 0
Share VATSIM

Download

Looking for another format? Having issues loading an existing format? Contact us
Advertisement - Login to hide

Notes

Requested: SBBR DTC BSB DTC SBAN Unmatched points: DTC BSB DTC

Route

SBBR SBAN

ID Type Via Altitude Latitude Longitude Leg Dist Tot Dist Heading (true) Name
O SBBR APT - 0 ft / 0 m -15.87110˚ -47.91863˚ - 0 nm - Brasilia Presidente Juscelino Kubitsch
O SBAN APT - 0 ft / 0 m -16.22915˚ -48.96427˚ 64 nm 64 nm 250° / 251° BASE AEREA

Altitude Profile

Advertisement - Login to hide

SBBR

Details ICAO SBBR (BSB)
Name Brasilia Presidente Juscelino Kubitsch
Region Brazil
Timezone America/Sao_Paulo (UTC-3.0)
Stats Elevation 3,479 ft / 1,060 m (AMSL)
Location -15.871101° -47.918626°
Runways 2
Magnetic Variation 21.593° W

METAR

SBBR 210700Z 00000KT CAVOK 10/09 Q1018

Decode

TAF

TAF SBBR 210200Z 2106/2206 19005KT CAVOK TN15/2110Z TX23/2118Z BECMG 2112/2114 22005KT 7000 SCT015 PROB30 2112/2114 BKN007 BECMG 2118/2120 25005KT 7000 SCT030 BECMG 2200/2202 26005KT CAVOK RMK PDE

Decode

Departure Runways

ID Width Length Bearing (true) Bearing (mag) Surface Threshold Offset Overrun Length
11L 148 ft / 45 m 10,493 ft / 3,198 m 86.35° 107.94° Asphalt 0 ft / 0 m 200 ft / 61 m
11R 148 ft / 45 m 10,839 ft / 3,304 m 86.00° 107.59° Asphalt 2,635 ft / 803 m 200 ft / 61 m
29L 148 ft / 45 m 10,839 ft / 3,304 m 265.99° 287.58° Asphalt 0 ft / 0 m 200 ft / 61 m
29R 148 ft / 45 m 10,493 ft / 3,198 m 266.34° 287.93° Asphalt 0 ft / 0 m 200 ft / 61 m

SBAN

Details ICAO SBAN
Name BASE AEREA
Region Brazil
Timezone America/Sao_Paulo (UTC-3.0)
Stats Elevation 3,728 ft / 1,136 m (AMSL)
Location -16.229153° -48.964267°
Runways 2
Magnetic Variation 21.163° W

METAR

SBAN 210700Z 09012KT CAVOK 10/06 Q1018

Decode

TAF

TAF TAF SBAN 210200Z 2106/2118 20010KT 7000 SCT006 TN14/2106Z TX19/2116Z PROB30 2109/2112 BKN007 BECMG 2112/2114 20010KT 7000 SCT013 PROB30 2112/2115 BKN008 RMK PDE

Decode

Destination Runways

ID Width Length Bearing (true) Bearing (mag) Surface Threshold Offset Overrun Length
06L 148 ft / 45 m 10,862 ft / 3,311 m 38.85° 60.01° Asphalt 0 ft / 0 m 1,151 ft / 351 m
06R 75 ft / 23 m 7,469 ft / 2,277 m 38.80° 59.96° Asphalt 0 ft / 0 m 0 ft / 0 m
24L 75 ft / 23 m 7,469 ft / 2,277 m 218.79° 239.95° Asphalt 0 ft / 0 m 0 ft / 0 m
24R 148 ft / 45 m 10,862 ft / 3,311 m 218.84° 240.00° Asphalt 0 ft / 0 m 1,142 ft / 348 m